createdAt,value
2022-11-12T00:02:27.797Z,72.12
2022-11-12T00:06:16.484Z,71.94
2022-11-12T00:10:03.920Z,72.04
2022-11-12T00:13:50.729Z,71.93
2022-11-12T00:17:40.003Z,71.91
2022-11-12T00:21:25.729Z,71.84
2022-11-12T00:25:12.161Z,71.76
2022-11-12T00:28:58.549Z,71.85
2022-11-12T00:32:45.488Z,71.64
2022-11-12T00:36:30.904Z,71.62
2022-11-12T00:40:17.272Z,71.65
2022-11-12T00:44:04.050Z,71.69
2022-11-12T00:47:52.547Z,71.90
2022-11-12T00:51:38.760Z,71.88
2022-11-12T00:55:26.362Z,71.81
2022-11-12T00:59:14.840Z,71.75
2022-11-12T01:03:01.435Z,71.85
2022-11-12T01:06:50.865Z,71.81
2022-11-12T01:10:38.585Z,71.65
2022-11-12T01:14:27.856Z,71.64
2022-11-12T01:18:17.375Z,71.70
2022-11-12T01:22:06.273Z,71.61
2022-11-12T01:25:55.892Z,71.69
2022-11-12T01:29:44.365Z,71.68
2022-11-12T01:33:36.179Z,71.61
2022-11-12T01:37:24.443Z,71.62
2022-11-12T01:41:37.204Z,71.84
2022-11-12T01:45:23.316Z,71.84
2022-11-12T01:49:15.566Z,71.91
2022-11-12T01:53:06.486Z,71.89
2022-11-12T01:56:54.278Z,71.89
2022-11-12T02:00:41.911Z,72.01
2022-11-12T02:04:29.756Z,72.02
2022-11-12T02:08:17.450Z,71.93
2022-11-12T02:12:04.059Z,71.82
2022-11-12T02:15:49.901Z,71.83
2022-11-12T02:19:40.350Z,71.87
2022-11-12T02:23:26.348Z,71.69
2022-11-12T02:27:12.865Z,71.65
2022-11-12T02:30:58.399Z,71.76
2022-11-12T02:34:44.446Z,71.67
2022-11-12T02:38:29.832Z,71.81
2022-11-12T02:42:15.837Z,71.74
2022-11-12T02:46:01.837Z,71.66
2022-11-12T02:49:47.978Z,71.88
2022-11-12T02:53:37.121Z,72.01
2022-11-12T02:57:23.653Z,71.94
2022-11-12T03:01:09.639Z,71.93
2022-11-12T03:04:55.776Z,71.89
2022-11-12T03:08:41.565Z,71.86
2022-11-12T03:12:27.108Z,71.61
2022-11-12T03:16:13.303Z,71.54
2022-11-12T03:19:59.040Z,71.63
2022-11-12T03:23:45.665Z,71.65
2022-11-12T03:27:31.729Z,71.57
2022-11-12T03:31:29.747Z,71.46
2022-11-12T03:35:19.066Z,71.50
2022-11-12T03:39:05.374Z,71.55
2022-11-12T03:42:52.165Z,71.70
2022-11-12T03:46:43.040Z,71.77
2022-11-12T03:50:31.402Z,71.87
2022-11-12T03:54:17.966Z,71.96
2022-11-12T03:58:03.849Z,71.93
2022-11-12T04:01:49.897Z,71.93
2022-11-12T04:05:53.446Z,71.96
2022-11-12T04:09:38.864Z,71.88
2022-11-12T04:13:30.760Z,71.86
2022-11-12T04:17:34.033Z,71.75
2022-11-12T04:21:37.340Z,71.77
2022-11-12T04:25:49.085Z,71.65
2022-11-12T04:29:52.491Z,71.76
2022-11-12T04:33:38.310Z,71.64
2022-11-12T04:37:25.611Z,71.63
2022-11-12T04:41:29.822Z,71.75
2022-11-12T04:45:15.905Z,71.88
2022-11-12T04:49:01.865Z,71.90
2022-11-12T04:52:48.387Z,71.93
2022-11-12T04:56:34.077Z,72.06
2022-11-12T05:00:21.113Z,72.02
2022-11-12T05:04:07.635Z,72.08
2022-11-12T05:07:53.300Z,71.95
2022-11-12T05:11:39.380Z,72.13
2022-11-12T05:15:25.600Z,72.08
2022-11-12T05:19:11.313Z,72.08
2022-11-12T05:23:06.659Z,71.98
2022-11-12T05:26:54.294Z,71.99
2022-11-12T05:30:39.929Z,72.09
2022-11-12T05:34:26.906Z,72.04
2022-11-12T05:38:13.339Z,72.04
2022-11-12T05:42:12.464Z,72.05
2022-11-12T05:45:59.155Z,72.16
2022-11-12T05:49:44.864Z,72.28
2022-11-12T05:53:30.633Z,72.34
2022-11-12T05:57:18.924Z,72.40
2022-11-12T06:01:05.480Z,72.55
2022-11-12T06:04:51.596Z,72.56
2022-11-12T06:08:37.223Z,72.66
2022-11-12T06:12:22.527Z,72.53
2022-11-12T06:16:11.860Z,72.52
2022-11-12T06:19:57.610Z,72.61
2022-11-12T06:23:43.406Z,72.61
2022-11-12T06:27:29.311Z,72.50
2022-11-12T06:31:15.341Z,72.43
2022-11-12T06:35:01.302Z,72.40
2022-11-12T06:38:47.503Z,72.39
2022-11-12T06:42:33.504Z,72.34
2022-11-12T06:46:19.810Z,72.56
2022-11-12T06:50:05.740Z,72.59
2022-11-12T06:53:52.556Z,72.58
2022-11-12T06:57:38.584Z,72.67
2022-11-12T07:01:24.922Z,72.74
2022-11-12T07:05:11.166Z,72.70
2022-11-12T07:08:58.324Z,72.82
2022-11-12T07:12:44.724Z,72.84
2022-11-12T07:16:32.831Z,72.77
2022-11-12T07:20:19.358Z,72.85
2022-11-12T07:24:05.478Z,72.67
2022-11-12T07:27:51.356Z,72.69
2022-11-12T07:31:38.073Z,72.64
2022-11-12T07:35:23.507Z,72.47
2022-11-12T07:39:09.148Z,72.49
2022-11-12T07:42:54.849Z,72.40
2022-11-12T07:50:43.540Z,72.39
2022-11-12T07:54:32.264Z,72.58
2022-11-12T07:58:17.735Z,72.51
2022-11-12T08:02:06.084Z,72.47
2022-11-12T08:05:51.906Z,72.49
2022-11-12T08:09:37.849Z,72.70
2022-11-12T08:13:23.286Z,72.66
2022-11-12T08:17:08.953Z,72.39
2022-11-12T08:21:00.353Z,72.45
2022-11-12T08:24:46.227Z,72.33
2022-11-12T08:28:33.656Z,72.20
2022-11-12T08:32:19.758Z,72.21
2022-11-12T08:36:08.622Z,72.21
2022-11-12T08:39:54.583Z,72.19
2022-11-12T08:43:43.241Z,72.32
2022-11-12T08:47:28.836Z,72.25
2022-11-12T08:51:14.984Z,72.28
2022-11-12T08:55:00.759Z,72.25
2022-11-12T08:58:46.548Z,72.58
2022-11-12T09:02:32.151Z,72.63
2022-11-12T09:06:18.087Z,72.43
2022-11-12T09:10:03.886Z,72.60
2022-11-12T09:13:51.647Z,72.27
2022-11-12T09:17:37.682Z,72.25
2022-11-12T09:21:25.156Z,72.17
2022-11-12T09:25:12.025Z,72.19
2022-11-12T09:28:57.889Z,72.01
2022-11-12T09:32:43.683Z,72.10
2022-11-12T09:36:29.734Z,72.09
2022-11-12T09:40:21.358Z,72.06
2022-11-12T09:44:10.456Z,71.90
2022-11-12T09:48:01.700Z,72.05
2022-11-12T09:51:52.449Z,72.03
2022-11-12T09:55:41.738Z,71.94
2022-11-12T09:59:31.263Z,71.90
2022-11-12T10:03:32.023Z,72.18
2022-11-12T10:07:29.527Z,72.01
2022-11-12T10:11:52.663Z,71.86
2022-11-12T10:16:08.799Z,71.92
2022-11-12T10:20:15.750Z,71.81
2022-11-12T10:24:03.278Z,71.87
2022-11-12T10:27:49.962Z,71.63
2022-11-12T10:31:36.559Z,71.49
2022-11-12T10:35:24.649Z,71.42
2022-11-12T10:39:11.659Z,71.54
2022-11-12T10:43:03.017Z,71.64
2022-11-12T10:46:51.454Z,71.76
2022-11-12T10:50:43.665Z,71.67
2022-11-12T10:54:42.869Z,71.85
2022-11-12T10:58:32.376Z,71.63
2022-11-12T11:02:21.771Z,71.40
2022-11-12T11:06:21.196Z,71.28
2022-11-12T11:10:23.643Z,71.18
2022-11-12T11:14:28.828Z,71.24
2022-11-12T11:18:15.951Z,71.25
2022-11-12T11:22:17.371Z,71.37
2022-11-12T11:26:18.168Z,71.22
2022-11-12T11:30:20.749Z,71.36
2022-11-12T11:34:22.409Z,71.19
2022-11-12T11:38:23.692Z,71.08
2022-11-12T11:42:27.239Z,71.40
2022-11-12T11:46:33.711Z,71.25
2022-11-12T11:50:29.588Z,71.28
2022-11-12T11:54:41.446Z,71.39
2022-11-12T11:58:52.982Z,71.48
2022-11-12T12:03:14.679Z,71.27
2022-11-12T12:07:17.139Z,71.15
2022-11-12T12:11:09.533Z,71.26
2022-11-12T12:15:20.726Z,71.15
2022-11-12T12:19:16.435Z,71.28
2022-11-12T12:23:05.037Z,71.13
2022-11-12T12:26:55.506Z,71.06
2022-11-12T12:30:47.134Z,71.05
2022-11-12T12:34:39.164Z,71.10
2022-11-12T12:38:32.172Z,70.98
2022-11-12T12:42:22.305Z,70.85
2022-11-12T12:46:12.981Z,71.10
2022-11-12T12:50:02.289Z,70.98
2022-11-12T12:53:48.080Z,71.05
2022-11-12T12:57:37.968Z,70.78
2022-11-12T13:01:35.645Z,70.53
2022-11-12T13:05:34.337Z,70.41
2022-11-12T13:09:28.734Z,70.48
2022-11-12T13:13:46.139Z,70.61
2022-11-12T13:17:48.879Z,70.45
2022-11-12T13:21:38.958Z,70.56
2022-11-12T13:25:31.960Z,70.28
2022-11-12T13:29:41.216Z,70.50
2022-11-12T13:33:35.593Z,70.48
2022-11-12T13:37:25.967Z,70.51
2022-11-12T13:41:19.765Z,70.54
2022-11-12T13:45:11.399Z,70.62
2022-11-12T13:49:02.028Z,70.57
2022-11-12T13:52:49.112Z,70.45
2022-11-12T13:56:38.011Z,70.55
2022-11-12T14:00:27.440Z,70.66
2022-11-12T14:04:18.584Z,70.56
2022-11-12T14:08:21.087Z,70.41
2022-11-12T14:12:22.944Z,70.46
2022-11-12T14:16:24.585Z,70.44
2022-11-12T14:20:31.509Z,70.44
2022-11-12T14:24:20.855Z,70.38
2022-11-12T14:28:07.402Z,70.39
2022-11-12T14:32:04.428Z,70.43
2022-11-12T14:35:51.777Z,70.53
2022-11-12T14:39:44.444Z,70.52
2022-11-12T14:43:38.424Z,70.57
2022-11-12T14:47:25.406Z,70.76
2022-11-12T14:51:15.513Z,70.69
2022-11-12T14:55:07.937Z,70.57
2022-11-12T14:58:55.633Z,70.56
2022-11-12T15:02:55.709Z,70.65
2022-11-12T15:06:43.991Z,70.52
2022-11-12T15:10:36.948Z,70.57
2022-11-12T15:14:26.959Z,70.50
2022-11-12T15:18:19.699Z,70.71
2022-11-12T15:22:07.055Z,70.63
2022-11-12T15:26:02.948Z,70.41
2022-11-12T15:29:48.952Z,70.57
2022-11-12T15:33:34.978Z,70.55
2022-11-12T15:37:29.331Z,70.71
2022-11-12T15:41:26.374Z,70.86
2022-11-12T15:45:19.856Z,70.87
2022-11-12T15:49:13.123Z,70.97
2022-11-12T15:52:59.328Z,70.92
2022-11-12T15:56:45.383Z,70.84
2022-11-12T16:00:36.518Z,70.96
2022-11-12T16:05:03.257Z,70.96
2022-11-12T16:08:49.031Z,70.88
2022-11-12T16:12:34.865Z,70.90
2022-11-12T16:16:21.120Z,70.81
2022-11-12T16:20:13.691Z,70.77
2022-11-12T16:23:59.374Z,70.65
2022-11-12T16:27:50.145Z,70.80
2022-11-12T16:31:38.682Z,70.97
2022-11-12T16:35:25.211Z,70.94
2022-11-12T16:39:13.850Z,71.11
2022-11-12T16:43:00.049Z,71.14
2022-11-12T16:46:47.964Z,71.15
2022-11-12T16:50:33.746Z,71.32
2022-11-12T16:54:19.480Z,71.23
2022-11-12T16:58:05.589Z,71.36
2022-11-12T17:01:52.133Z,71.37
2022-11-12T17:05:40.817Z,71.32
2022-11-12T17:09:26.556Z,71.31
2022-11-12T17:13:16.205Z,71.21
2022-11-12T17:17:02.251Z,71.00
2022-11-12T17:20:51.220Z,70.95
2022-11-12T17:24:37.600Z,71.11
2022-11-12T17:28:24.600Z,71.24
2022-11-12T17:32:10.669Z,71.31
2022-11-12T17:36:01.982Z,71.32
2022-11-12T17:39:49.033Z,71.45
2022-11-12T17:43:37.957Z,71.47
2022-11-12T17:47:24.776Z,71.43
2022-11-12T17:51:13.688Z,71.74
2022-11-12T17:54:59.785Z,71.72
2022-11-12T17:58:47.557Z,71.58
2022-11-12T18:02:34.620Z,71.36
2022-11-12T18:06:22.805Z,71.55
2022-11-12T18:10:09.271Z,71.59
2022-11-12T18:13:55.230Z,71.54
2022-11-12T18:17:41.127Z,71.22
2022-11-12T18:21:28.557Z,71.37
2022-11-12T18:25:15.194Z,71.39
2022-11-12T18:29:03.408Z,71.65
2022-11-12T18:32:50.963Z,71.94
2022-11-12T18:36:37.585Z,71.98
2022-11-12T18:40:25.321Z,72.05
2022-11-12T18:44:12.039Z,71.85
2022-11-12T18:47:58.033Z,72.13
2022-11-12T18:51:44.643Z,71.93
2022-11-12T18:55:32.479Z,71.83
2022-11-12T18:59:20.032Z,72.05
2022-11-12T19:03:05.703Z,71.90
2022-11-12T19:06:51.890Z,72.08
2022-11-12T19:10:42.214Z,71.96
2022-11-12T19:14:31.620Z,72.01
2022-11-12T19:18:17.915Z,72.06
2022-11-12T19:22:04.122Z,71.90
2022-11-12T19:25:53.917Z,72.25
2022-11-12T19:29:46.165Z,72.14
2022-11-12T19:33:32.118Z,72.36
2022-11-12T19:37:33.027Z,72.48
2022-11-12T19:41:20.393Z,72.50
2022-11-12T19:45:07.697Z,72.40
2022-11-12T19:48:53.492Z,72.66
2022-11-12T19:52:41.433Z,72.79
2022-11-12T19:56:29.649Z,72.70
2022-11-12T20:00:19.526Z,72.55
2022-11-12T20:04:06.020Z,72.76
2022-11-12T20:07:53.585Z,72.72
2022-11-12T20:11:39.357Z,72.73
2022-11-12T20:15:26.080Z,72.63
2022-11-12T20:19:12.474Z,72.79
2022-11-12T20:23:02.264Z,72.69
2022-11-12T20:26:48.879Z,72.80
2022-11-12T20:30:35.308Z,72.96
2022-11-12T20:34:23.901Z,72.96
2022-11-12T20:38:09.619Z,73.29
2022-11-12T20:41:56.540Z,73.35
2022-11-12T20:45:42.124Z,73.35
2022-11-12T20:49:31.476Z,73.39
2022-11-12T20:53:18.866Z,73.37
2022-11-12T20:57:05.032Z,73.26
2022-11-12T21:00:52.741Z,73.48
2022-11-12T21:04:38.888Z,73.44
2022-11-12T21:08:26.436Z,73.38
2022-11-12T21:12:12.875Z,73.63
2022-11-12T21:16:00.461Z,73.66
2022-11-12T21:19:46.249Z,73.55
2022-11-12T21:23:34.407Z,73.69
2022-11-12T21:27:22.032Z,73.62
2022-11-12T21:31:11.993Z,73.69
2022-11-12T21:34:57.660Z,73.61
2022-11-12T21:38:44.170Z,73.61
2022-11-12T21:42:30.260Z,73.69
2022-11-12T21:46:21.328Z,73.71
2022-11-12T21:50:10.174Z,73.72
2022-11-12T21:54:00.049Z,73.79
2022-11-12T21:57:55.383Z,74.05
2022-11-12T22:01:44.171Z,73.89
2022-11-12T22:05:32.343Z,73.90
2022-11-12T22:09:20.164Z,74.01
2022-11-12T22:13:26.503Z,74.03
2022-11-12T22:17:16.551Z,74.24
2022-11-12T22:21:08.678Z,74.05
2022-11-12T22:24:55.073Z,74.24
2022-11-12T22:28:41.244Z,74.22
2022-11-12T22:32:28.513Z,74.18
2022-11-12T22:36:18.266Z,74.10
2022-11-12T22:40:09.131Z,74.08
2022-11-12T22:44:02.618Z,74.15
2022-11-12T22:47:49.882Z,74.13
2022-11-12T22:51:41.943Z,74.00
2022-11-12T22:55:33.072Z,74.11
2022-11-12T22:59:19.117Z,74.22
2022-11-12T23:03:09.764Z,74.17
2022-11-12T23:06:56.932Z,74.21
2022-11-12T23:10:45.801Z,74.41
2022-11-12T23:14:32.328Z,74.56
2022-11-12T23:18:18.425Z,74.57
2022-11-12T23:22:07.811Z,74.60
2022-11-12T23:25:53.649Z,74.51
2022-11-12T23:29:41.749Z,74.77
2022-11-12T23:33:28.300Z,74.64
2022-11-12T23:37:14.602Z,74.72
2022-11-12T23:41:03.682Z,74.61
2022-11-12T23:44:49.941Z,74.46
2022-11-12T23:48:36.080Z,74.32
2022-11-12T23:52:24.195Z,74.36
2022-11-12T23:56:11.892Z,74.22
